createdAt,value
2022-08-03T00:00:04.127Z,27.45
2022-08-03T00:00:34.542Z,27.46
2022-08-03T00:01:04.961Z,27.47
2022-08-03T00:01:35.382Z,27.46
2022-08-03T00:02:05.809Z,27.45
2022-08-03T00:02:38.587Z,27.46
2022-08-03T00:03:09.102Z,27.46
2022-08-03T00:03:39.500Z,27.48
2022-08-03T00:04:09.919Z,27.51
2022-08-03T00:04:40.349Z,27.51
2022-08-03T00:05:10.771Z,27.49
2022-08-03T00:05:41.190Z,27.48
2022-08-03T00:06:16.511Z,27.47
2022-08-03T00:06:46.930Z,27.46
2022-08-03T00:07:17.356Z,27.45
2022-08-03T00:07:48.477Z,27.45
2022-08-03T00:08:19.866Z,27.46
2022-08-03T00:08:50.286Z,27.48
2022-08-03T00:09:20.707Z,27.46
2022-08-03T00:09:51.125Z,27.46
2022-08-03T00:10:21.547Z,27.44
2022-08-03T00:10:51.966Z,27.43
2022-08-03T00:11:22.390Z,27.40
2022-08-03T00:11:52.809Z,27.38
2022-08-03T00:12:23.236Z,27.39
2022-08-03T00:12:53.656Z,27.41
2022-08-03T00:13:24.075Z,27.41
2022-08-03T00:13:54.497Z,27.40
2022-08-03T00:14:24.916Z,27.40
2022-08-03T00:14:55.339Z,27.42
2022-08-03T00:15:25.799Z,27.45
2022-08-03T00:15:56.177Z,27.45
2022-08-03T00:16:26.608Z,27.44
2022-08-03T00:16:57.018Z,27.42
2022-08-03T00:17:27.445Z,27.44
2022-08-03T00:17:57.868Z,27.44
2022-08-03T00:18:28.287Z,27.41
2022-08-03T00:18:58.705Z,27.40
2022-08-03T00:19:31.236Z,27.40
2022-08-03T00:20:01.658Z,27.39
2022-08-03T00:20:32.076Z,27.39
2022-08-03T00:21:02.496Z,27.39
2022-08-03T00:21:32.916Z,27.40
2022-08-03T00:22:03.342Z,27.43
2022-08-03T00:22:33.763Z,27.46
2022-08-03T00:23:04.184Z,27.47
2022-08-03T00:23:52.446Z,27.47
2022-08-03T00:24:09.924Z,27.49
2022-08-03T00:24:40.342Z,27.50
2022-08-03T00:25:10.759Z,27.55
2022-08-03T00:25:41.183Z,27.53
2022-08-03T00:26:11.604Z,27.50
2022-08-03T00:26:42.026Z,27.47
2022-08-03T00:27:12.453Z,27.45
2022-08-03T00:27:48.354Z,27.47
2022-08-03T00:28:20.707Z,27.49
2022-08-03T00:28:51.135Z,27.51
2022-08-03T00:29:21.548Z,27.49
2022-08-03T00:29:59.707Z,27.47
2022-08-03T00:30:30.783Z,27.47
2022-08-03T00:31:01.374Z,27.46
2022-08-03T00:31:51.462Z,27.46
2022-08-03T00:32:07.133Z,27.43
2022-08-03T00:32:45.013Z,27.43
2022-08-03T00:33:15.756Z,27.45
2022-08-03T00:33:59.380Z,27.46
2022-08-03T00:34:22.456Z,27.47
2022-08-03T00:34:58.882Z,27.45
2022-08-03T00:35:50.072Z,27.43
2022-08-03T00:36:04.867Z,27.41
2022-08-03T00:36:35.286Z,27.41
2022-08-03T00:37:05.713Z,27.41
2022-08-03T00:37:40.660Z,27.44
2022-08-03T00:38:11.455Z,27.45
2022-08-03T00:38:41.872Z,27.43
2022-08-03T00:39:12.294Z,27.45
2022-08-03T00:39:42.716Z,27.46
2022-08-03T00:40:13.137Z,27.43
2022-08-03T00:40:43.557Z,27.41
2022-08-03T00:41:15.784Z,27.39
2022-08-03T00:41:46.159Z,27.36
2022-08-03T00:42:16.921Z,27.36
2022-08-03T00:42:47.426Z,27.36
2022-08-03T00:43:17.847Z,27.36
2022-08-03T00:43:48.272Z,27.36
2022-08-03T00:44:18.688Z,27.36
2022-08-03T00:44:49.106Z,27.36
2022-08-03T00:45:19.527Z,27.38
2022-08-03T00:45:50.153Z,27.38
2022-08-03T00:46:22.096Z,27.39
2022-08-03T00:46:52.492Z,27.38
2022-08-03T00:47:22.925Z,27.40
2022-08-03T00:47:53.344Z,27.41
2022-08-03T00:48:32.920Z,27.43
2022-08-03T00:48:59.123Z,27.43
2022-08-03T00:49:29.581Z,27.43
2022-08-03T00:49:59.953Z,27.44
2022-08-03T00:50:30.375Z,27.43
2022-08-03T00:51:00.798Z,27.43
2022-08-03T00:51:31.245Z,27.40
2022-08-03T00:52:01.637Z,27.39
2022-08-03T00:52:36.967Z,27.37
2022-08-03T00:53:07.387Z,27.35
2022-08-03T00:53:37.808Z,27.36
2022-08-03T00:54:08.229Z,27.37
2022-08-03T00:54:38.664Z,27.36
2022-08-03T00:55:09.081Z,27.35
2022-08-03T00:55:39.502Z,27.37
2022-08-03T00:56:09.921Z,27.37
2022-08-03T00:56:40.343Z,27.37
2022-08-03T00:57:15.701Z,27.37
2022-08-03T00:57:46.122Z,27.36
2022-08-03T00:58:16.541Z,27.36
2022-08-03T00:58:46.960Z,27.38
2022-08-03T00:59:17.387Z,27.38
2022-08-03T00:59:47.799Z,27.36
2022-08-03T01:00:18.218Z,27.36
2022-08-03T01:00:48.741Z,27.38
2022-08-03T01:01:19.219Z,27.37
2022-08-03T01:01:49.739Z,27.38
2022-08-03T01:02:20.117Z,27.37
2022-08-03T01:02:50.536Z,27.37
2022-08-03T01:03:20.957Z,27.37
2022-08-03T01:03:51.376Z,27.38
2022-08-03T01:04:21.796Z,27.38
2022-08-03T01:04:52.215Z,27.36
2022-08-03T01:05:23.340Z,27.37
2022-08-03T01:05:53.754Z,27.38
2022-08-03T01:06:24.174Z,27.37
2022-08-03T01:06:54.594Z,27.37
2022-08-03T01:07:25.025Z,27.36
2022-08-03T01:07:55.446Z,27.35
2022-08-03T01:08:25.865Z,27.36
2022-08-03T01:08:56.283Z,27.34
2022-08-03T01:09:26.706Z,27.34
2022-08-03T01:09:57.126Z,27.35
2022-08-03T01:10:27.546Z,27.35
2022-08-03T01:11:01.317Z,27.33
2022-08-03T01:11:31.740Z,27.33
2022-08-03T01:12:02.158Z,27.34
2022-08-03T01:12:32.587Z,27.35
2022-08-03T01:13:03.007Z,27.36
2022-08-03T01:14:02.398Z,27.37
2022-08-03T01:14:19.249Z,27.37
2022-08-03T01:14:44.068Z,27.37
2022-08-03T01:15:14.517Z,27.38
2022-08-03T01:15:44.908Z,27.39
2022-08-03T01:16:15.326Z,27.38
2022-08-03T01:16:45.744Z,27.38
2022-08-03T01:17:16.169Z,27.38
2022-08-03T01:17:47.256Z,27.38
2022-08-03T01:18:17.660Z,27.37
2022-08-03T01:18:48.083Z,27.36
2022-08-03T01:19:18.509Z,27.36
2022-08-03T01:19:48.930Z,27.36
2022-08-03T01:20:19.349Z,27.37
2022-08-03T01:20:49.775Z,27.36
2022-08-03T01:21:20.193Z,27.35
2022-08-03T01:21:52.113Z,27.36
2022-08-03T01:22:22.537Z,27.37
2022-08-03T01:22:52.962Z,27.36
2022-08-03T01:23:23.380Z,27.38
2022-08-03T01:23:58.701Z,27.37
2022-08-03T01:24:29.120Z,27.36
2022-08-03T01:24:59.547Z,27.37
2022-08-03T01:25:29.966Z,27.38
2022-08-03T01:26:00.386Z,27.39
2022-08-03T01:26:30.806Z,27.38
2022-08-03T01:27:03.423Z,27.36
2022-08-03T01:27:33.867Z,27.35
2022-08-03T01:28:04.285Z,27.35
2022-08-03T01:28:34.708Z,27.36
2022-08-03T01:29:05.125Z,27.35
2022-08-03T01:29:35.545Z,27.34
2022-08-03T01:30:05.987Z,27.34
2022-08-03T01:30:36.384Z,27.34
2022-08-03T01:31:06.804Z,27.34
2022-08-03T01:31:37.226Z,27.33
2022-08-03T01:32:53.615Z,27.32
2022-08-03T01:33:03.099Z,27.32
2022-08-03T01:33:23.416Z,27.31
2022-08-03T01:33:53.839Z,27.31
2022-08-03T01:34:24.259Z,27.31
2022-08-03T01:34:54.681Z,27.31
2022-08-03T01:35:25.105Z,27.31
2022-08-03T01:35:55.522Z,27.30
2022-08-03T01:36:25.940Z,27.30
2022-08-03T01:36:56.360Z,27.31
2022-08-03T01:37:26.787Z,27.34
2022-08-03T01:37:57.206Z,27.37
2022-08-03T01:38:27.632Z,27.37
2022-08-03T01:38:58.047Z,27.37
2022-08-03T01:39:28.478Z,27.37
2022-08-03T01:39:58.894Z,27.35
2022-08-03T01:40:29.313Z,27.36
2022-08-03T01:40:59.734Z,27.37
2022-08-03T01:41:30.160Z,27.37
2022-08-03T01:42:00.576Z,27.37
2022-08-03T01:42:31.003Z,27.36
2022-08-03T01:43:01.426Z,27.35
2022-08-03T01:44:26.355Z,27.35
2022-08-03T01:44:29.888Z,27.34
2022-08-03T01:44:42.486Z,27.32
2022-08-03T01:45:12.907Z,27.35
2022-08-03T01:45:43.329Z,27.38
2022-08-03T01:46:13.747Z,27.39
2022-08-03T01:46:47.716Z,27.41
2022-08-03T01:47:19.270Z,27.42
2022-08-03T01:47:49.686Z,27.41
2022-08-03T01:48:20.104Z,27.39
2022-08-03T01:48:50.529Z,27.39
2022-08-03T01:49:21.015Z,27.37
2022-08-03T01:49:51.411Z,27.35
2022-08-03T01:50:21.833Z,27.34
2022-08-03T01:50:52.254Z,27.35
2022-08-03T01:51:22.671Z,27.33
2022-08-03T01:51:57.924Z,27.33
2022-08-03T01:52:28.431Z,27.32
2022-08-03T01:52:58.851Z,27.32
2022-08-03T01:53:29.271Z,27.31
2022-08-03T01:53:59.688Z,27.32
2022-08-03T01:54:30.109Z,27.30
2022-08-03T01:55:00.528Z,27.29
2022-08-03T01:55:30.952Z,27.29
2022-08-03T01:56:01.374Z,27.31
2022-08-03T01:56:31.790Z,27.32
2022-08-03T01:57:02.222Z,27.34
2022-08-03T01:57:32.654Z,27.35
2022-08-03T01:58:07.978Z,27.34
2022-08-03T01:58:38.393Z,27.32
2022-08-03T01:59:08.812Z,27.31
2022-08-03T01:59:39.233Z,27.28
2022-08-03T02:00:09.651Z,27.30
2022-08-03T02:00:40.124Z,27.30
2022-08-03T02:01:10.555Z,27.31
2022-08-03T02:02:32.387Z,27.32
2022-08-03T02:02:32.585Z,27.32
2022-08-03T02:02:51.762Z,27.31
2022-08-03T02:03:22.175Z,27.31
2022-08-03T02:03:59.805Z,27.31
2022-08-03T02:04:27.917Z,27.31
2022-08-03T02:04:58.336Z,27.30
2022-08-03T02:05:28.757Z,27.33
2022-08-03T02:07:00.007Z,27.32
2022-08-03T02:07:00.862Z,27.33
2022-08-03T02:07:09.821Z,27.32
2022-08-03T02:07:40.248Z,27.33
2022-08-03T02:08:10.670Z,27.34
2022-08-03T02:08:41.089Z,27.36
2022-08-03T02:09:11.508Z,27.36
2022-08-03T02:09:41.927Z,27.37
2022-08-03T02:10:12.346Z,27.36
2022-08-03T02:10:42.769Z,27.34
2022-08-03T02:11:13.189Z,27.34
2022-08-03T02:11:43.610Z,27.33
2022-08-03T02:12:14.326Z,27.30
2022-08-03T02:12:46.044Z,27.30
2022-08-03T02:13:16.488Z,27.29
2022-08-03T02:13:46.905Z,27.28
2022-08-03T02:14:17.330Z,27.29
2022-08-03T02:14:47.748Z,27.28
2022-08-03T02:15:18.169Z,27.28
2022-08-03T02:15:48.588Z,27.28
2022-08-03T02:16:19.010Z,27.29
2022-08-03T02:16:49.433Z,27.31
2022-08-03T02:17:38.750Z,27.32
2022-08-03T02:17:55.212Z,27.28
2022-08-03T02:18:25.627Z,27.27
2022-08-03T02:18:56.055Z,27.27
2022-08-03T02:19:26.465Z,27.30
2022-08-03T02:19:56.887Z,27.30
2022-08-03T02:20:27.310Z,27.29
2022-08-03T02:20:57.726Z,27.30
2022-08-03T02:21:56.486Z,27.30
2022-08-03T02:22:03.467Z,27.31
2022-08-03T02:22:34.473Z,27.32
2022-08-03T02:23:04.893Z,27.32
2022-08-03T02:23:35.312Z,27.34
2022-08-03T02:24:06.376Z,27.34
2022-08-03T02:24:36.783Z,27.34
2022-08-03T02:25:07.201Z,27.34
2022-08-03T02:25:37.623Z,27.33
2022-08-03T02:26:08.043Z,27.34
2022-08-03T02:26:38.464Z,27.32
2022-08-03T02:27:08.884Z,27.29
2022-08-03T02:27:43.370Z,27.30
2022-08-03T02:28:14.062Z,27.28
2022-08-03T02:28:44.480Z,27.29
2022-08-03T02:29:14.902Z,27.30
2022-08-03T02:29:45.321Z,27.29
2022-08-03T02:30:15.739Z,27.30
2022-08-03T02:30:46.159Z,27.32
2022-08-03T02:31:21.482Z,27.32
2022-08-03T02:31:51.902Z,27.34
2022-08-03T02:32:22.322Z,27.33
2022-08-03T02:32:52.759Z,27.32
2022-08-03T02:33:23.178Z,27.32
2022-08-03T02:33:53.597Z,27.30
2022-08-03T02:34:24.021Z,27.29
2022-08-03T02:34:54.437Z,27.28
2022-08-03T02:35:24.857Z,27.27
2022-08-03T02:35:55.279Z,27.27
2022-08-03T02:36:25.699Z,27.28
2022-08-03T02:36:56.124Z,27.28
2022-08-03T02:37:26.543Z,27.29
2022-08-03T02:37:56.973Z,27.30
2022-08-03T02:38:27.395Z,27.31
2022-08-03T02:38:57.812Z,27.30
2022-08-03T02:39:30.061Z,27.30
2022-08-03T02:40:00.482Z,27.30
2022-08-03T02:40:30.903Z,27.31
2022-08-03T02:41:01.323Z,27.31
2022-08-03T02:41:31.745Z,27.32
2022-08-03T02:42:04.776Z,27.29
2022-08-03T02:42:35.194Z,27.29
2022-08-03T02:43:05.626Z,27.28
2022-08-03T02:43:39.206Z,27.28
2022-08-03T02:44:11.376Z,27.30
2022-08-03T02:44:41.796Z,27.31
2022-08-03T02:45:12.223Z,27.30
2022-08-03T02:45:45.525Z,27.28
2022-08-03T02:46:16.126Z,27.27
2022-08-03T02:46:46.556Z,27.26
2022-08-03T02:47:16.993Z,27.27
2022-08-03T02:47:53.494Z,27.27
2022-08-03T02:48:22.740Z,27.28
2022-08-03T02:48:53.234Z,27.28
2022-08-03T02:49:41.186Z,27.28
2022-08-03T02:49:58.943Z,27.27
2022-08-03T02:50:29.341Z,27.27
2022-08-03T02:50:59.794Z,27.25
2022-08-03T02:51:30.183Z,27.27
2022-08-03T02:52:00.602Z,27.28
2022-08-03T02:52:31.024Z,27.30
2022-08-03T02:53:01.452Z,27.31
2022-08-03T02:53:31.869Z,27.30
2022-08-03T02:54:02.287Z,27.29
2022-08-03T02:54:32.808Z,27.30
2022-08-03T02:55:03.281Z,27.30
2022-08-03T02:55:33.701Z,27.29
2022-08-03T02:56:04.120Z,27.28
2022-08-03T02:56:34.539Z,27.28
2022-08-03T02:57:04.962Z,27.29
2022-08-03T02:57:35.385Z,27.29
2022-08-03T02:58:05.813Z,27.29
2022-08-03T02:58:36.231Z,27.28
2022-08-03T02:59:06.651Z,27.26
2022-08-03T02:59:37.311Z,27.26
2022-08-03T03:00:07.739Z,27.26
2022-08-03T03:00:38.198Z,27.29
2022-08-03T03:01:08.704Z,27.31
2022-08-03T03:01:39.083Z,27.31
2022-08-03T03:02:09.500Z,27.31
2022-08-03T03:02:39.929Z,27.31
2022-08-03T03:03:14.861Z,27.30
2022-08-03T03:03:45.281Z,27.29
2022-08-03T03:04:15.702Z,27.28
2022-08-03T03:05:53.294Z,27.27
2022-08-03T03:05:56.337Z,27.26
2022-08-03T03:05:57.950Z,27.27
2022-08-03T03:06:30.208Z,27.26
2022-08-03T03:07:01.764Z,27.25
2022-08-03T03:07:52.149Z,27.24
2022-08-03T03:08:18.496Z,27.22
2022-08-03T03:08:44.650Z,27.24
2022-08-03T03:09:15.083Z,27.22
2022-08-03T03:09:45.498Z,27.23
2022-08-03T03:10:15.917Z,27.24
2022-08-03T03:10:46.339Z,27.23
2022-08-03T03:11:16.766Z,27.25
2022-08-03T03:11:47.186Z,27.26
2022-08-03T03:12:17.890Z,27.28
2022-08-03T03:12:48.330Z,27.28
2022-08-03T03:13:18.759Z,27.29
2022-08-03T03:13:49.183Z,27.30
2022-08-03T03:14:19.604Z,27.30
2022-08-03T03:14:54.927Z,27.31
2022-08-03T03:15:25.349Z,27.32
2022-08-03T03:15:55.767Z,27.30
2022-08-03T03:16:26.187Z,27.31
2022-08-03T03:16:57.675Z,27.32
2022-08-03T03:17:28.390Z,27.33
2022-08-03T03:17:58.814Z,27.32
2022-08-03T03:18:29.235Z,27.33
2022-08-03T03:18:59.655Z,27.33
2022-08-03T03:19:30.074Z,27.32
2022-08-03T03:20:00.505Z,27.33
2022-08-03T03:20:30.921Z,27.32
2022-08-03T03:21:01.345Z,27.30
2022-08-03T03:21:31.760Z,27.29
2022-08-03T03:22:02.182Z,27.29
2022-08-03T03:22:32.604Z,27.28
2022-08-03T03:23:03.030Z,27.28
2022-08-03T03:23:34.125Z,27.29
2022-08-03T03:24:04.557Z,27.32
2022-08-03T03:24:34.983Z,27.33
2022-08-03T03:25:05.406Z,27.32
2022-08-03T03:25:35.823Z,27.31
2022-08-03T03:26:06.243Z,27.29
2022-08-03T03:26:40.704Z,27.28
2022-08-03T03:27:11.986Z,27.27
2022-08-03T03:27:50.813Z,27.26
2022-08-03T03:28:21.296Z,27.24
2022-08-03T03:28:51.717Z,27.24
2022-08-03T03:29:22.136Z,27.23
2022-08-03T03:29:52.557Z,27.23
2022-08-03T03:30:22.977Z,27.22
2022-08-03T03:30:53.641Z,27.23
2022-08-03T03:31:24.057Z,27.24
2022-08-03T03:31:54.476Z,27.26
2022-08-03T03:32:24.895Z,27.25
2022-08-03T03:32:55.314Z,27.25
2022-08-03T03:33:28.273Z,27.24
2022-08-03T03:33:58.902Z,27.25
2022-08-03T03:34:29.320Z,27.22
2022-08-03T03:35:00.901Z,27.23
2022-08-03T03:35:31.325Z,27.22
2022-08-03T03:36:06.646Z,27.26
2022-08-03T03:36:37.069Z,27.27
2022-08-03T03:37:07.485Z,27.27
2022-08-03T03:37:37.904Z,27.26
2022-08-03T03:38:08.338Z,27.23
2022-08-03T03:38:38.761Z,27.22
2022-08-03T03:39:15.566Z,27.21
2022-08-03T03:39:44.505Z,27.19
2022-08-03T03:40:14.925Z,27.18
2022-08-03T03:40:45.349Z,27.20
2022-08-03T03:41:15.766Z,27.21
2022-08-03T03:41:46.186Z,27.21
2022-08-03T03:42:17.049Z,27.23
2022-08-03T03:42:47.666Z,27.23
2022-08-03T03:43:18.096Z,27.23
2022-08-03T03:43:48.516Z,27.22
2022-08-03T03:44:19.679Z,27.21
2022-08-03T03:44:50.164Z,27.22
2022-08-03T03:45:20.523Z,27.23
2022-08-03T03:45:50.941Z,27.24
2022-08-03T03:46:21.360Z,27.24
2022-08-03T03:46:51.782Z,27.24
2022-08-03T03:47:32.147Z,27.22
2022-08-03T03:47:57.524Z,27.22
2022-08-03T03:48:27.962Z,27.24
2022-08-03T03:48:58.438Z,27.23
2022-08-03T03:49:28.868Z,27.22
2022-08-03T03:49:59.237Z,27.23
2022-08-03T03:50:29.657Z,27.24
2022-08-03T03:51:00.076Z,27.24
2022-08-03T03:51:30.509Z,27.25
2022-08-03T03:52:00.921Z,27.24
2022-08-03T03:52:31.339Z,27.24
2022-08-03T03:53:01.764Z,27.23
2022-08-03T03:53:32.183Z,27.22
2022-08-03T03:54:02.608Z,27.22
2022-08-03T03:54:33.024Z,27.23
2022-08-03T03:55:03.449Z,27.23
2022-08-03T03:55:33.861Z,27.25
2022-08-03T03:56:04.286Z,27.25
2022-08-03T03:56:34.711Z,27.27
2022-08-03T03:57:05.125Z,27.29
2022-08-03T03:57:35.546Z,27.29
2022-08-03T03:58:05.973Z,27.32
2022-08-03T03:58:36.392Z,27.33
2022-08-03T03:59:06.811Z,27.33
2022-08-03T03:59:37.228Z,27.33
2022-08-03T04:00:07.648Z,27.32
2022-08-03T04:00:38.125Z,27.33
2022-08-03T04:01:08.639Z,27.32
2022-08-03T04:01:39.024Z,27.35
2022-08-03T04:02:09.505Z,27.35
2022-08-03T04:02:39.897Z,27.37
2022-08-03T04:03:10.324Z,27.37
2022-08-03T04:03:40.745Z,27.36
2022-08-03T04:04:11.174Z,27.35
2022-08-03T04:04:41.587Z,27.32
2022-08-03T04:05:12.008Z,27.31
2022-08-03T04:05:45.888Z,27.28
2022-08-03T04:06:16.390Z,27.26
2022-08-03T04:06:46.814Z,27.25
2022-08-03T04:07:17.229Z,27.24
2022-08-03T04:07:47.652Z,27.24
2022-08-03T04:08:18.086Z,27.23
2022-08-03T04:08:49.406Z,27.23
2022-08-03T04:09:19.908Z,27.23
2022-08-03T04:09:50.329Z,27.22
2022-08-03T04:10:20.754Z,27.23
2022-08-03T04:10:51.171Z,27.25
2022-08-03T04:11:29.025Z,27.25
2022-08-03T04:11:56.914Z,27.25
2022-08-03T04:12:27.334Z,27.27
2022-08-03T04:12:57.755Z,27.29
2022-08-03T04:13:28.183Z,27.32
2022-08-03T04:14:02.009Z,27.33
2022-08-03T04:14:32.548Z,27.33
2022-08-03T04:15:02.964Z,27.32
2022-08-03T04:15:33.383Z,27.31
2022-08-03T04:16:03.809Z,27.30
2022-08-03T04:16:34.228Z,27.28
2022-08-03T04:17:04.650Z,27.26
2022-08-03T04:17:35.070Z,27.27
2022-08-03T04:18:05.489Z,27.30
2022-08-03T04:18:35.920Z,27.33
2022-08-03T04:19:06.340Z,27.37
2022-08-03T04:19:36.765Z,27.37
2022-08-03T04:20:08.319Z,27.36
2022-08-03T04:20:38.738Z,27.36
2022-08-03T04:21:09.155Z,27.39
2022-08-03T04:21:39.576Z,27.43
2022-08-03T04:22:10.073Z,27.43
2022-08-03T04:22:40.448Z,27.38
2022-08-03T04:23:15.427Z,27.36
2022-08-03T04:23:46.201Z,27.39
2022-08-03T04:24:16.621Z,27.42
2022-08-03T04:24:47.041Z,27.47
2022-08-03T04:25:17.461Z,27.48
2022-08-03T04:25:47.882Z,27.48
2022-08-03T04:26:18.307Z,27.49
2022-08-03T04:26:52.609Z,27.46
2022-08-03T04:27:23.279Z,27.45
2022-08-03T04:28:30.125Z,27.44
2022-08-03T04:28:30.578Z,27.43
2022-08-03T04:29:02.105Z,27.44
2022-08-03T04:29:32.525Z,27.43
2022-08-03T04:30:02.946Z,27.42
2022-08-03T04:30:33.367Z,27.44
2022-08-03T04:31:03.797Z,27.39
2022-08-03T04:31:34.218Z,27.42
2022-08-03T04:32:04.646Z,27.46
2022-08-03T04:32:35.063Z,27.49
2022-08-03T04:33:05.484Z,27.47
2022-08-03T04:33:36.121Z,27.47
2022-08-03T04:34:06.842Z,27.48
2022-08-03T04:34:37.262Z,27.48
2022-08-03T04:35:07.693Z,27.51
2022-08-03T04:36:01.105Z,27.51
2022-08-03T04:36:13.434Z,27.47
2022-08-03T04:36:43.852Z,27.44
2022-08-03T04:37:14.271Z,27.44
2022-08-03T04:37:44.694Z,27.38
2022-08-03T04:38:15.113Z,27.38
2022-08-03T04:38:45.542Z,27.47
2022-08-03T04:39:15.961Z,27.47
2022-08-03T04:39:46.385Z,27.45
2022-08-03T04:40:16.806Z,27.49
2022-08-03T04:40:52.127Z,27.49
2022-08-03T04:41:22.550Z,27.50
2022-08-03T04:42:07.443Z,27.49
2022-08-03T04:42:28.295Z,27.45
2022-08-03T04:42:58.714Z,27.38
2022-08-03T04:43:29.138Z,27.35
2022-08-03T04:43:59.565Z,27.36
2022-08-03T04:44:29.978Z,27.40
2022-08-03T04:45:01.614Z,27.47
2022-08-03T04:45:32.200Z,27.49
2022-08-03T04:46:02.623Z,27.49
2022-08-03T04:46:33.043Z,27.46
2022-08-03T04:47:03.468Z,27.46
2022-08-03T04:47:33.885Z,27.47
2022-08-03T04:48:04.307Z,27.45
2022-08-03T04:48:34.734Z,27.44
2022-08-03T04:49:05.210Z,27.43
2022-08-03T04:49:35.633Z,27.48
2022-08-03T04:50:09.227Z,27.48
2022-08-03T04:50:41.361Z,27.47
2022-08-03T04:51:11.783Z,27.47
2022-08-03T04:51:42.203Z,27.54
2022-08-03T04:52:12.643Z,27.59
2022-08-03T04:52:43.047Z,27.63
2022-08-03T04:53:13.460Z,27.64
2022-08-03T04:53:43.895Z,27.59
2022-08-03T04:54:14.313Z,27.61
2022-08-03T04:54:48.798Z,27.69
2022-08-03T04:55:20.055Z,27.68
2022-08-03T04:55:50.477Z,27.68
2022-08-03T04:56:20.893Z,27.68
2022-08-03T04:56:51.319Z,27.64
2022-08-03T04:57:23.236Z,27.62
2022-08-03T04:57:53.964Z,27.64
2022-08-03T04:58:24.384Z,27.68
2022-08-03T04:58:54.812Z,27.70
2022-08-03T04:59:25.229Z,27.68
2022-08-03T05:00:02.213Z,27.65
2022-08-03T05:00:30.975Z,27.61
2022-08-03T05:01:01.394Z,27.58
2022-08-03T05:01:31.854Z,27.60
2022-08-03T05:02:02.281Z,27.64
2022-08-03T05:02:32.671Z,27.64
2022-08-03T05:03:03.109Z,27.64
2022-08-03T05:03:33.514Z,27.60
2022-08-03T05:04:03.968Z,27.58
2022-08-03T05:04:34.360Z,27.56
2022-08-03T05:05:04.781Z,27.55
2022-08-03T05:05:48.930Z,27.54
2022-08-03T05:06:11.631Z,27.56
2022-08-03T05:06:48.141Z,27.55
2022-08-03T05:07:20.486Z,27.53
2022-08-03T05:07:53.113Z,27.52
2022-08-03T05:08:27.771Z,27.50
2022-08-03T05:08:58.733Z,27.50
2022-08-03T05:09:49.759Z,27.49
2022-08-03T05:10:04.753Z,27.48
2022-08-03T05:10:40.101Z,27.47
2022-08-03T05:11:10.499Z,27.46
2022-08-03T05:11:40.934Z,27.47
2022-08-03T05:12:11.342Z,27.45
2022-08-03T05:12:41.758Z,27.45
2022-08-03T05:13:12.178Z,27.45
2022-08-03T05:13:42.605Z,27.44
2022-08-03T05:14:13.023Z,27.44
2022-08-03T05:14:43.445Z,27.44
2022-08-03T05:15:13.868Z,27.44
2022-08-03T05:15:44.297Z,27.43
2022-08-03T05:16:14.720Z,27.44
2022-08-03T05:16:45.137Z,27.44
2022-08-03T05:17:15.601Z,27.45
2022-08-03T05:17:46.022Z,27.46
2022-08-03T05:18:16.439Z,27.44
2022-08-03T05:18:46.867Z,27.44
2022-08-03T05:19:17.295Z,27.44
2022-08-03T05:19:47.716Z,27.46
2022-08-03T05:20:19.144Z,27.46
2022-08-03T05:20:49.533Z,27.46
2022-08-03T05:21:19.959Z,27.46
2022-08-03T05:21:52.532Z,27.49
2022-08-03T05:22:23.402Z,27.50
2022-08-03T05:22:53.822Z,27.47
2022-08-03T05:23:24.241Z,27.47
2022-08-03T05:23:54.678Z,27.47
2022-08-03T05:24:25.102Z,27.48
2022-08-03T05:24:55.520Z,27.50
2022-08-03T05:25:27.537Z,27.50
2022-08-03T05:25:57.977Z,27.49
2022-08-03T05:26:28.488Z,27.47
2022-08-03T05:26:58.858Z,27.48
2022-08-03T05:27:29.276Z,27.49
2022-08-03T05:27:59.697Z,27.47
2022-08-03T05:28:30.119Z,27.46
2022-08-03T05:29:00.548Z,27.46
2022-08-03T05:29:30.967Z,27.45
2022-08-03T05:30:29.787Z,27.46
2022-08-03T05:30:36.712Z,27.46
2022-08-03T05:31:07.134Z,27.47
2022-08-03T05:31:37.552Z,27.46
2022-08-03T05:32:08.539Z,27.46
2022-08-03T05:32:38.978Z,27.46
2022-08-03T05:33:09.406Z,27.45
2022-08-03T05:33:39.827Z,27.42
2022-08-03T05:34:10.252Z,27.42
2022-08-03T05:34:40.672Z,27.40
2022-08-03T05:36:00.709Z,27.48
2022-08-03T05:36:00.873Z,27.45
2022-08-03T05:36:21.737Z,27.48
2022-08-03T05:36:52.159Z,27.45
2022-08-03T05:37:22.578Z,27.46
2022-08-03T05:37:54.868Z,27.47
2022-08-03T05:38:28.649Z,27.48
2022-08-03T05:39:02.637Z,27.49
2022-08-03T05:39:33.315Z,27.49
2022-08-03T05:40:03.741Z,27.49
2022-08-03T05:40:34.159Z,27.48
2022-08-03T05:41:22.327Z,27.50
2022-08-03T05:41:39.905Z,27.50
2022-08-03T05:42:10.405Z,27.53
2022-08-03T05:42:40.769Z,27.52
2022-08-03T05:43:11.189Z,27.50
2022-08-03T05:43:41.610Z,27.50
2022-08-03T05:44:12.040Z,27.51
2022-08-03T05:44:42.458Z,27.52
2022-08-03T05:45:12.882Z,27.51
2022-08-03T05:45:43.704Z,27.50
2022-08-03T05:46:14.135Z,27.50
2022-08-03T05:46:44.548Z,27.49
2022-08-03T05:47:14.966Z,27.48
2022-08-03T05:47:45.387Z,27.47
2022-08-03T05:48:15.803Z,27.47
2022-08-03T05:48:46.224Z,27.48
2022-08-03T05:49:16.738Z,27.50
2022-08-03T05:49:47.113Z,27.52
2022-08-03T05:50:17.538Z,27.50
2022-08-03T05:50:47.961Z,27.51
2022-08-03T05:51:18.380Z,27.51
2022-08-03T05:51:48.799Z,27.54
2022-08-03T05:52:24.384Z,27.56
2022-08-03T05:52:55.051Z,27.58
2022-08-03T05:53:25.593Z,27.57
2022-08-03T05:53:56.023Z,27.56
2022-08-03T05:54:26.442Z,27.57
2022-08-03T05:55:01.766Z,27.57
2022-08-03T05:55:32.192Z,27.58
2022-08-03T05:56:13.290Z,27.58
2022-08-03T05:56:37.933Z,27.60
2022-08-03T05:57:08.357Z,27.62
2022-08-03T05:57:38.777Z,27.61
2022-08-03T05:58:09.198Z,27.60
2022-08-03T05:58:41.599Z,27.60
2022-08-03T05:59:36.888Z,27.61
2022-08-03T05:59:53.913Z,27.61
2022-08-03T06:00:22.672Z,27.60
2022-08-03T06:00:56.120Z,27.60
2022-08-03T06:01:26.619Z,27.62
2022-08-03T06:01:57.108Z,27.63
2022-08-03T06:02:27.546Z,27.64
2022-08-03T06:02:57.936Z,27.62
2022-08-03T06:03:28.361Z,27.62
2022-08-03T06:03:58.799Z,27.64
2022-08-03T06:04:29.226Z,27.65
2022-08-03T06:04:59.647Z,27.67
2022-08-03T06:05:30.068Z,27.67
2022-08-03T06:06:00.825Z,27.67
2022-08-03T06:06:32.422Z,27.66
2022-08-03T06:07:02.914Z,27.67
2022-08-03T06:07:33.331Z,27.69
2022-08-03T06:08:03.758Z,27.70
2022-08-03T06:08:34.176Z,27.71
2022-08-03T06:09:04.602Z,27.72
2022-08-03T06:10:33.250Z,27.75
2022-08-03T06:10:36.061Z,27.76
2022-08-03T06:10:45.666Z,27.77
2022-08-03T06:11:16.087Z,27.78
2022-08-03T06:11:46.510Z,27.78
2022-08-03T06:12:17.149Z,27.80
2022-08-03T06:12:47.577Z,27.81
2022-08-03T06:13:17.996Z,27.82
2022-08-03T06:13:48.417Z,27.83
2022-08-03T06:14:18.850Z,27.85
2022-08-03T06:14:49.271Z,27.87
2022-08-03T06:15:19.690Z,27.90
2022-08-03T06:15:50.124Z,27.92
2022-08-03T06:16:20.553Z,27.93
2022-08-03T06:16:50.983Z,27.96
2022-08-03T06:17:21.414Z,27.93
2022-08-03T06:17:51.835Z,27.92
2022-08-03T06:18:22.256Z,27.90
2022-08-03T06:18:52.681Z,27.89
2022-08-03T06:19:23.107Z,27.87
2022-08-03T06:19:53.534Z,27.83
2022-08-03T06:20:27.328Z,27.82
2022-08-03T06:20:57.929Z,27.82
2022-08-03T06:21:33.252Z,27.87
2022-08-03T06:22:03.678Z,27.92
2022-08-03T06:22:34.095Z,27.96
2022-08-03T06:23:04.517Z,27.98
2022-08-03T06:23:54.460Z,28.00
2022-08-03T06:24:13.485Z,28.04
2022-08-03T06:24:53.363Z,28.04
2022-08-03T06:25:21.344Z,28.03
2022-08-03T06:25:51.833Z,28.07
2022-08-03T06:26:22.252Z,28.08
2022-08-03T06:26:52.675Z,28.06
2022-08-03T06:27:36.647Z,28.03
2022-08-03T06:27:58.427Z,28.03
2022-08-03T06:28:53.081Z,28.04
2022-08-03T06:29:04.175Z,28.06
2022-08-03T06:29:34.596Z,28.07
2022-08-03T06:30:05.063Z,28.11
2022-08-03T06:30:35.446Z,28.17
2022-08-03T06:31:06.429Z,28.18
2022-08-03T06:31:37.057Z,28.19
2022-08-03T06:32:07.477Z,28.18
2022-08-03T06:32:37.898Z,28.16
2022-08-03T06:33:08.393Z,28.17
2022-08-03T06:34:30.808Z,28.18
2022-08-03T06:34:34.393Z,28.11
2022-08-03T06:34:49.400Z,28.12
2022-08-03T06:35:19.878Z,28.15
2022-08-03T06:35:50.298Z,28.16
2022-08-03T06:36:20.727Z,28.19
2022-08-03T06:36:51.187Z,28.22
2022-08-03T06:37:23.007Z,28.28
2022-08-03T06:37:53.429Z,28.31
2022-08-03T06:38:23.859Z,28.31
2022-08-03T06:38:54.312Z,28.34
2022-08-03T06:39:24.754Z,28.36
2022-08-03T06:39:55.178Z,28.39